createdAt,value
2016-12-30T00:00:30.631Z,974.18
2016-12-30T00:01:30.612Z,974.21
2016-12-30T00:02:30.595Z,974.22
2016-12-30T00:03:30.577Z,974.19
2016-12-30T00:04:30.559Z,974.18
2016-12-30T00:05:30.541Z,974.21
2016-12-30T00:06:30.525Z,974.2
2016-12-30T00:07:30.507Z,974.2
2016-12-30T00:08:30.487Z,974.18
2016-12-30T00:09:30.468Z,974.18
2016-12-30T00:10:30.451Z,974.19
2016-12-30T00:11:30.432Z,974.17
2016-12-30T00:12:30.414Z,974.19
2016-12-30T00:13:30.396Z,974.16
2016-12-30T00:14:30.376Z,974.13
2016-12-30T00:15:30.360Z,974.09
2016-12-30T00:16:30.341Z,974.1
2016-12-30T00:17:30.323Z,974.1
2016-12-30T00:18:30.303Z,974.13
2016-12-30T00:19:30.286Z,974.13
2016-12-30T00:20:30.269Z,974.14
2016-12-30T00:21:30.251Z,974.21
2016-12-30T00:22:30.231Z,974.19
2016-12-30T00:23:30.214Z,974.21
2016-12-30T00:24:30.196Z,974.26
2016-12-30T00:25:30.177Z,974.24
2016-12-30T00:26:30.157Z,974.24
2016-12-30T00:27:30.141Z,974.26
2016-12-30T00:28:30.121Z,974.3
2016-12-30T00:29:30.104Z,974.28
2016-12-30T00:30:30.085Z,974.29
2016-12-30T00:31:30.068Z,974.3
2016-12-30T00:32:30.051Z,974.29
2016-12-30T00:33:30.030Z,974.29
2016-12-30T00:34:30.013Z,974.32
2016-12-30T00:35:29.993Z,974.27
2016-12-30T00:36:29.974Z,974.29
2016-12-30T00:37:29.959Z,974.3
2016-12-30T00:38:29.938Z,974.29
2016-12-30T00:39:29.920Z,974.26
2016-12-30T00:40:29.902Z,974.23
2016-12-30T00:41:29.887Z,974.22
2016-12-30T00:42:29.865Z,974.17
2016-12-30T00:43:29.847Z,974.15
2016-12-30T00:44:29.829Z,974.15
2016-12-30T00:45:29.811Z,974.13
2016-12-30T00:46:29.792Z,974.16
2016-12-30T00:47:29.774Z,974.15
2016-12-30T00:48:29.754Z,974.11
2016-12-30T00:49:29.737Z,974.12
2016-12-30T00:50:29.720Z,974.16
2016-12-30T00:51:29.700Z,974.19
2016-12-30T00:52:29.681Z,974.18
2016-12-30T00:53:29.663Z,974.23
2016-12-30T00:54:29.646Z,974.23
2016-12-30T00:55:29.626Z,974.17
2016-12-30T00:56:29.608Z,974.15
2016-12-30T00:57:29.591Z,974.13
2016-12-30T00:58:29.571Z,974.11
2016-12-30T00:59:29.553Z,974.1
2016-12-30T01:00:29.536Z,974.04
2016-12-30T01:01:29.517Z,974.06
2016-12-30T01:02:29.498Z,974.07
2016-12-30T01:03:29.480Z,974.04
2016-12-30T01:04:29.462Z,974.04
2016-12-30T01:05:29.443Z,974.09
2016-12-30T01:06:29.425Z,974.09
2016-12-30T01:07:29.406Z,974.06
2016-12-30T01:08:29.389Z,974.09
2016-12-30T01:09:29.370Z,974.09
2016-12-30T01:10:29.353Z,974.12
2016-12-30T01:11:29.332Z,974.14
2016-12-30T01:12:29.315Z,974.1
2016-12-30T01:13:29.297Z,974.13
2016-12-30T01:14:29.278Z,974.11
2016-12-30T01:15:29.260Z,974.16
2016-12-30T01:16:29.241Z,974.15
2016-12-30T01:17:29.223Z,974.13
2016-12-30T01:18:29.205Z,974.22
2016-12-30T01:19:29.186Z,974.27
2016-12-30T01:20:29.167Z,974.22
2016-12-30T01:21:29.148Z,974.21
2016-12-30T01:22:29.130Z,974.22
2016-12-30T01:23:29.113Z,974.24
2016-12-30T01:24:29.094Z,974.19
2016-12-30T01:25:29.076Z,974.25
2016-12-30T01:26:29.058Z,974.27
2016-12-30T01:27:29.039Z,974.26
2016-12-30T01:28:29.021Z,974.28
2016-12-30T01:29:29.002Z,974.3
2016-12-30T01:30:28.983Z,974.26
2016-12-30T01:31:28.964Z,974.28
2016-12-30T01:32:28.946Z,974.24
2016-12-30T01:33:28.929Z,974.26
2016-12-30T01:34:28.910Z,974.26
2016-12-30T01:35:28.891Z,974.23
2016-12-30T01:36:28.871Z,974.26
2016-12-30T01:37:28.854Z,974.26
2016-12-30T01:38:28.835Z,974.3
2016-12-30T01:39:28.818Z,974.3
2016-12-30T01:40:28.801Z,974.3
2016-12-30T01:41:28.781Z,974.28
2016-12-30T01:42:28.762Z,974.29
2016-12-30T01:43:28.744Z,974.26
2016-12-30T01:44:28.726Z,974.26
2016-12-30T01:45:28.708Z,974.22
2016-12-30T01:46:28.687Z,974.2
2016-12-30T01:47:28.670Z,974.2
2016-12-30T01:48:28.652Z,974.18
2016-12-30T01:49:28.633Z,974.16
2016-12-30T01:50:28.615Z,974.13
2016-12-30T01:51:28.595Z,974.15
2016-12-30T01:52:28.578Z,974.12
2016-12-30T01:53:28.559Z,974.09
2016-12-30T01:54:28.540Z,974.03
2016-12-30T01:55:28.522Z,974.07
2016-12-30T01:56:28.503Z,974.06
2016-12-30T01:57:28.485Z,974.03
2016-12-30T01:58:28.465Z,974.02
2016-12-30T01:59:28.447Z,974.03
2016-12-30T02:00:28.429Z,973.98
2016-12-30T02:01:28.411Z,974
2016-12-30T02:02:28.392Z,974
2016-12-30T02:03:28.374Z,973.95
2016-12-30T02:04:28.355Z,973.95
2016-12-30T02:05:28.336Z,973.93
2016-12-30T02:06:28.318Z,973.87
2016-12-30T02:07:28.300Z,973.9
2016-12-30T02:08:28.280Z,973.91
2016-12-30T02:09:28.262Z,973.9
2016-12-30T02:10:28.245Z,973.89
2016-12-30T02:11:28.225Z,973.89
2016-12-30T02:12:28.205Z,973.88
2016-12-30T02:13:28.188Z,973.87
2016-12-30T02:14:28.170Z,973.91
2016-12-30T02:15:28.150Z,973.91
2016-12-30T02:16:28.131Z,973.95
2016-12-30T02:17:28.113Z,973.87
2016-12-30T02:18:28.095Z,973.87
2016-12-30T02:19:28.076Z,973.85
2016-12-30T02:20:28.056Z,973.83
2016-12-30T02:21:28.038Z,973.82
2016-12-30T02:22:28.019Z,973.84
2016-12-30T02:23:28.000Z,973.81
2016-12-30T02:24:27.983Z,973.8
2016-12-30T02:25:27.964Z,973.82
2016-12-30T02:26:27.945Z,973.8
2016-12-30T02:27:27.927Z,973.8
2016-12-30T02:28:27.908Z,973.78
2016-12-30T02:29:27.890Z,973.78
2016-12-30T02:30:27.870Z,973.79
2016-12-30T02:31:27.852Z,973.72
2016-12-30T02:32:27.832Z,973.73
2016-12-30T02:33:27.814Z,973.76
2016-12-30T02:34:27.793Z,973.72
2016-12-30T02:35:27.777Z,973.67
2016-12-30T02:36:27.758Z,973.71
2016-12-30T02:37:27.739Z,973.68
2016-12-30T02:38:27.720Z,973.72
2016-12-30T02:39:27.702Z,973.69
2016-12-30T02:40:27.683Z,973.69
2016-12-30T02:41:27.664Z,973.67
2016-12-30T02:42:27.646Z,973.67
2016-12-30T02:43:27.626Z,973.69
2016-12-30T02:44:27.607Z,973.67
2016-12-30T02:45:27.590Z,973.69
2016-12-30T02:46:27.570Z,973.68
2016-12-30T02:47:27.552Z,973.62
2016-12-30T02:48:27.532Z,973.63
2016-12-30T02:49:27.514Z,973.57
2016-12-30T02:50:27.496Z,973.58
2016-12-30T02:51:27.478Z,973.59
2016-12-30T02:52:27.458Z,973.54
2016-12-30T02:53:27.440Z,973.54
2016-12-30T02:54:27.421Z,973.49
2016-12-30T02:55:27.402Z,973.5
2016-12-30T02:56:27.383Z,973.54
2016-12-30T02:57:27.366Z,973.45
2016-12-30T02:58:27.347Z,973.47
2016-12-30T02:59:27.328Z,973.48
2016-12-30T03:00:27.309Z,973.5
2016-12-30T03:01:27.290Z,973.44
2016-12-30T03:02:27.273Z,973.47
2016-12-30T03:03:27.253Z,973.45
2016-12-30T03:04:27.234Z,973.46
2016-12-30T03:05:27.217Z,973.45
2016-12-30T03:06:27.197Z,973.42
2016-12-30T03:07:27.179Z,973.43
2016-12-30T03:08:27.160Z,973.49
2016-12-30T03:09:27.141Z,973.48
2016-12-30T03:10:27.123Z,973.47
2016-12-30T03:11:27.104Z,973.43
2016-12-30T03:12:27.085Z,973.51
2016-12-30T03:13:27.067Z,973.52
2016-12-30T03:14:27.048Z,973.53
2016-12-30T03:15:27.030Z,973.6
2016-12-30T03:16:27.011Z,973.52
2016-12-30T03:17:26.992Z,973.59
2016-12-30T03:18:26.973Z,973.6
2016-12-30T03:19:26.956Z,973.57
2016-12-30T03:20:26.938Z,973.55
2016-12-30T03:21:26.917Z,973.59
2016-12-30T03:22:26.899Z,973.55
2016-12-30T03:23:26.881Z,973.6
2016-12-30T03:24:26.862Z,973.59
2016-12-30T03:25:26.842Z,973.57
2016-12-30T03:26:26.824Z,973.58
2016-12-30T03:27:26.806Z,973.54
2016-12-30T03:28:26.786Z,973.53
2016-12-30T03:29:26.769Z,973.53
2016-12-30T03:30:26.750Z,973.55
2016-12-30T03:31:26.731Z,973.56
2016-12-30T03:32:26.711Z,973.51
2016-12-30T03:33:26.696Z,973.52
2016-12-30T03:34:26.675Z,973.51
2016-12-30T03:35:26.654Z,973.54
2016-12-30T03:36:26.636Z,973.49
2016-12-30T03:37:26.619Z,973.48
2016-12-30T03:38:26.600Z,973.45
2016-12-30T03:39:26.580Z,973.43
2016-12-30T03:40:26.562Z,973.44
2016-12-30T03:41:26.544Z,973.44
2016-12-30T03:42:26.524Z,973.41
2016-12-30T03:43:26.504Z,973.47
2016-12-30T03:44:26.486Z,973.4
2016-12-30T03:45:26.469Z,973.44
2016-12-30T03:46:26.448Z,973.41
2016-12-30T03:47:26.429Z,973.42
2016-12-30T03:48:26.412Z,973.36
2016-12-30T03:49:26.392Z,973.34
2016-12-30T03:50:26.373Z,973.36
2016-12-30T03:51:26.353Z,973.29
2016-12-30T03:52:26.337Z,973.37
2016-12-30T03:53:26.320Z,973.36
2016-12-30T03:54:26.297Z,973.32
2016-12-30T03:55:26.279Z,973.36
2016-12-30T03:56:26.261Z,973.35
2016-12-30T03:57:26.240Z,973.31
2016-12-30T03:58:26.222Z,973.32
2016-12-30T03:59:26.204Z,973.33
2016-12-30T04:00:26.185Z,973.29
2016-12-30T04:01:26.165Z,973.22
2016-12-30T04:02:26.146Z,973.23
2016-12-30T04:03:26.129Z,973.25
2016-12-30T04:04:26.110Z,973.19
2016-12-30T04:05:26.090Z,973.16
2016-12-30T04:06:26.072Z,973.19
2016-12-30T04:07:26.053Z,973.19
2016-12-30T04:08:26.034Z,973.19
2016-12-30T04:09:26.014Z,973.19
2016-12-30T04:10:25.997Z,973.19
2016-12-30T04:11:25.977Z,973.18
2016-12-30T04:12:25.959Z,973.18
2016-12-30T04:13:25.939Z,973.23
2016-12-30T04:14:25.920Z,973.22
2016-12-30T04:15:25.903Z,973.23
2016-12-30T04:16:25.881Z,973.26
2016-12-30T04:17:25.864Z,973.19
2016-12-30T04:18:25.844Z,973.23
2016-12-30T04:19:25.824Z,973.21
2016-12-30T04:20:25.806Z,973.2
2016-12-30T04:21:25.791Z,973.22
2016-12-30T04:22:25.770Z,973.26
2016-12-30T04:23:25.750Z,973.29
2016-12-30T04:24:25.730Z,973.27
2016-12-30T04:25:25.713Z,973.3
2016-12-30T04:26:25.693Z,973.32
2016-12-30T04:27:25.673Z,973.3
2016-12-30T04:28:25.655Z,973.32
2016-12-30T04:29:25.636Z,973.31
2016-12-30T04:30:25.616Z,973.32
2016-12-30T04:31:25.598Z,973.3
2016-12-30T04:32:25.581Z,973.3
2016-12-30T04:33:25.560Z,973.31
2016-12-30T04:34:25.540Z,973.28
2016-12-30T04:35:25.522Z,973.29
2016-12-30T04:36:25.504Z,973.28
2016-12-30T04:37:25.495Z,973.3
2016-12-30T04:38:25.465Z,973.29
2016-12-30T04:39:25.445Z,973.25
2016-12-30T04:40:25.428Z,973.29
2016-12-30T04:41:25.407Z,973.22
2016-12-30T04:42:25.388Z,973.27
2016-12-30T04:43:25.371Z,973.28
2016-12-30T04:44:25.351Z,973.28
2016-12-30T04:45:25.331Z,973.33
2016-12-30T04:46:25.312Z,973.36
2016-12-30T04:47:25.293Z,973.37
2016-12-30T04:48:25.275Z,973.32
2016-12-30T04:49:25.256Z,973.3
2016-12-30T04:50:25.238Z,973.29
2016-12-30T04:51:25.220Z,973.27
2016-12-30T04:52:25.199Z,973.29
2016-12-30T04:53:25.180Z,973.31
2016-12-30T04:54:25.161Z,973.24
2016-12-30T04:55:25.142Z,973.29
2016-12-30T04:56:25.123Z,973.26
2016-12-30T04:57:25.103Z,973.3
2016-12-30T04:58:25.084Z,973.28
2016-12-30T04:59:25.066Z,973.32
2016-12-30T05:00:25.046Z,973.3
2016-12-30T05:01:25.028Z,973.33
2016-12-30T05:02:25.007Z,973.28
2016-12-30T05:03:24.989Z,973.25
2016-12-30T05:04:24.970Z,973.24
2016-12-30T05:05:24.950Z,973.25
2016-12-30T05:06:24.931Z,973.21
2016-12-30T05:07:24.912Z,973.23
2016-12-30T05:08:24.892Z,973.2
2016-12-30T05:09:24.875Z,973.22
2016-12-30T05:10:24.855Z,973.24
2016-12-30T05:11:24.837Z,973.21
2016-12-30T05:12:24.816Z,973.23
2016-12-30T05:13:24.797Z,973.19
2016-12-30T05:14:24.777Z,973.22
2016-12-30T05:15:24.758Z,973.24
2016-12-30T05:16:24.739Z,973.23
2016-12-30T05:17:24.720Z,973.29
2016-12-30T05:18:24.699Z,973.26
2016-12-30T05:19:24.683Z,973.26
2016-12-30T05:20:24.663Z,973.33
2016-12-30T05:21:24.642Z,973.29
2016-12-30T05:22:24.623Z,973.28
2016-12-30T05:23:24.604Z,973.27
2016-12-30T05:24:24.585Z,973.26
2016-12-30T05:25:24.565Z,973.29
2016-12-30T05:26:24.547Z,973.28
2016-12-30T05:27:24.528Z,973.26
2016-12-30T05:28:24.508Z,973.29
2016-12-30T05:29:24.488Z,973.28
2016-12-30T05:30:24.469Z,973.29
2016-12-30T05:31:24.450Z,973.32
2016-12-30T05:32:24.430Z,973.28
2016-12-30T05:33:24.411Z,973.32
2016-12-30T05:34:24.392Z,973.25
2016-12-30T05:35:24.374Z,973.32
2016-12-30T05:36:24.353Z,973.32
2016-12-30T05:37:24.334Z,973.34
2016-12-30T05:38:24.315Z,973.3
2016-12-30T05:39:24.297Z,973.29
2016-12-30T05:40:24.276Z,973.3
2016-12-30T05:41:24.258Z,973.28
2016-12-30T05:42:24.239Z,973.31
2016-12-30T05:43:24.219Z,973.25
2016-12-30T05:44:24.199Z,973.27
2016-12-30T05:45:24.180Z,973.27
2016-12-30T05:46:24.160Z,973.29
2016-12-30T05:47:24.141Z,973.28
2016-12-30T05:48:24.122Z,973.28
2016-12-30T05:49:24.106Z,973.31
2016-12-30T05:50:24.085Z,973.31
2016-12-30T05:51:24.064Z,973.24
2016-12-30T05:52:24.045Z,973.22
2016-12-30T05:53:24.026Z,973.26
2016-12-30T05:54:24.005Z,973.25
2016-12-30T05:55:23.987Z,973.26
2016-12-30T05:56:23.966Z,973.22
2016-12-30T05:57:23.950Z,973.21
2016-12-30T05:58:23.928Z,973.22
2016-12-30T05:59:23.909Z,973.23
2016-12-30T06:00:23.890Z,973.27
2016-12-30T06:01:23.873Z,973.28
2016-12-30T06:02:23.851Z,973.27
2016-12-30T06:03:23.832Z,973.27
2016-12-30T06:04:23.815Z,973.23
2016-12-30T06:05:23.793Z,973.23
2016-12-30T06:06:23.776Z,973.2
2016-12-30T06:07:23.756Z,973.23
2016-12-30T06:08:23.736Z,973.27
2016-12-30T06:09:23.716Z,973.21
2016-12-30T06:10:23.698Z,973.29
2016-12-30T06:11:23.679Z,973.24
2016-12-30T06:12:23.659Z,973.26
2016-12-30T06:13:23.639Z,973.31
2016-12-30T06:14:23.620Z,973.31
2016-12-30T06:15:23.602Z,973.3
2016-12-30T06:16:23.581Z,973.32
2016-12-30T06:17:23.566Z,973.34
2016-12-30T06:18:23.543Z,973.31
2016-12-30T06:19:23.574Z,973.34
2016-12-30T06:20:23.507Z,973.32
2016-12-30T06:21:23.485Z,973.31
2016-12-30T06:22:23.466Z,973.28
2016-12-30T06:23:23.448Z,973.31
2016-12-30T06:24:23.429Z,973.31
2016-12-30T06:25:23.410Z,973.37
2016-12-30T06:26:23.391Z,973.41
2016-12-30T06:27:23.371Z,973.4
2016-12-30T06:28:23.353Z,973.38
2016-12-30T06:29:23.333Z,973.42
2016-12-30T06:30:23.314Z,973.42
2016-12-30T06:31:23.294Z,973.41
2016-12-30T06:32:23.275Z,973.39
2016-12-30T06:33:23.256Z,973.42
2016-12-30T06:34:23.236Z,973.42
2016-12-30T06:35:23.218Z,973.43
2016-12-30T06:36:23.199Z,973.44
2016-12-30T06:37:23.180Z,973.41
2016-12-30T06:38:23.159Z,973.41
2016-12-30T06:39:23.141Z,973.45
2016-12-30T06:40:23.122Z,973.41
2016-12-30T06:41:23.103Z,973.41
2016-12-30T06:42:23.082Z,973.45
2016-12-30T06:43:23.064Z,973.45
2016-12-30T06:44:23.045Z,973.43
2016-12-30T06:45:23.025Z,973.47
2016-12-30T06:46:23.007Z,973.48
2016-12-30T06:47:22.988Z,973.48
2016-12-30T06:48:22.968Z,973.52
2016-12-30T06:49:22.949Z,973.53
2016-12-30T06:50:22.930Z,973.46
2016-12-30T06:51:22.911Z,973.49
2016-12-30T06:52:22.891Z,973.49
2016-12-30T06:53:22.872Z,973.51
2016-12-30T06:54:22.854Z,973.48
2016-12-30T06:55:22.834Z,973.46
2016-12-30T06:56:22.814Z,973.46
2016-12-30T06:57:22.805Z,973.47
2016-12-30T06:58:22.778Z,973.47
2016-12-30T06:59:22.759Z,973.47
2016-12-30T07:00:22.738Z,973.46
2016-12-30T07:01:22.720Z,973.47
2016-12-30T07:02:22.700Z,973.43
2016-12-30T07:03:22.680Z,973.43
2016-12-30T07:04:22.661Z,973.41
2016-12-30T07:05:22.643Z,973.44
2016-12-30T07:06:22.624Z,973.42
2016-12-30T07:07:22.604Z,973.39
2016-12-30T07:08:22.585Z,973.37
2016-12-30T07:09:22.567Z,973.44
2016-12-30T07:10:22.548Z,973.4
2016-12-30T07:11:22.528Z,973.43
2016-12-30T07:12:22.510Z,973.44
2016-12-30T07:13:22.491Z,973.45
2016-12-30T07:14:22.471Z,973.49
2016-12-30T07:15:22.451Z,973.47
2016-12-30T07:16:22.433Z,973.48
2016-12-30T07:17:22.413Z,973.47
2016-12-30T07:18:22.394Z,973.46
2016-12-30T07:19:22.376Z,973.42
2016-12-30T07:20:22.356Z,973.39
2016-12-30T07:21:22.337Z,973.36
2016-12-30T07:22:22.318Z,973.36
2016-12-30T07:23:22.305Z,973.4
2016-12-30T07:24:22.279Z,973.44
2016-12-30T07:25:22.262Z,973.43
2016-12-30T07:26:22.241Z,973.48
2016-12-30T07:27:22.222Z,973.48
2016-12-30T07:28:22.203Z,973.47
2016-12-30T07:29:22.184Z,973.47
2016-12-30T07:30:22.165Z,973.53
2016-12-30T07:31:22.145Z,973.55
2016-12-30T07:32:22.126Z,973.57
2016-12-30T07:33:22.108Z,973.59
2016-12-30T07:34:22.088Z,973.6
2016-12-30T07:35:22.069Z,973.57
2016-12-30T07:36:22.050Z,973.58
2016-12-30T07:37:22.031Z,973.61
2016-12-30T07:38:22.013Z,973.63
2016-12-30T07:39:21.993Z,973.57
2016-12-30T07:40:21.974Z,973.57
2016-12-30T07:41:21.954Z,973.6
2016-12-30T07:42:21.935Z,973.58
2016-12-30T07:43:21.917Z,973.57
2016-12-30T07:44:21.895Z,973.58
2016-12-30T07:45:21.878Z,973.58
2016-12-30T07:46:21.859Z,973.54
2016-12-30T07:47:21.841Z,973.59
2016-12-30T07:48:21.822Z,973.65
2016-12-30T07:49:21.802Z,973.62
2016-12-30T07:50:21.783Z,973.63
2016-12-30T07:51:21.764Z,973.63
2016-12-30T07:52:21.745Z,973.61
2016-12-30T07:53:21.725Z,973.63
2016-12-30T07:54:21.707Z,973.64
2016-12-30T07:55:21.687Z,973.64
2016-12-30T07:56:21.669Z,973.7
2016-12-30T07:57:21.650Z,973.64
2016-12-30T07:58:21.630Z,973.61
2016-12-30T07:59:21.612Z,973.69
2016-12-30T08:00:21.593Z,973.6
2016-12-30T08:01:21.574Z,973.67
2016-12-30T08:02:21.554Z,973.66
2016-12-30T08:03:21.537Z,973.68
2016-12-30T08:04:21.515Z,973.64
2016-12-30T08:05:21.499Z,973.63
2016-12-30T08:06:21.479Z,973.63
2016-12-30T08:07:21.460Z,973.63
2016-12-30T08:08:21.441Z,973.61
2016-12-30T08:09:21.421Z,973.59
2016-12-30T08:10:21.402Z,973.58
2016-12-30T08:11:21.384Z,973.63
2016-12-30T08:12:21.365Z,973.65
2016-12-30T08:13:21.345Z,973.66
2016-12-30T08:14:21.325Z,973.66
2016-12-30T08:15:21.307Z,973.67
2016-12-30T08:16:21.289Z,973.69
2016-12-30T08:17:21.269Z,973.62
2016-12-30T08:18:21.251Z,973.64
2016-12-30T08:19:21.232Z,973.6
2016-12-30T08:20:21.212Z,973.65
2016-12-30T08:21:21.193Z,973.66
2016-12-30T08:22:21.176Z,973.62
2016-12-30T08:23:21.155Z,973.62
2016-12-30T08:24:21.136Z,973.67
2016-12-30T08:25:21.117Z,973.65
2016-12-30T08:26:21.100Z,973.68
2016-12-30T08:27:21.080Z,973.67
2016-12-30T08:28:21.061Z,973.64
2016-12-30T08:29:21.041Z,973.61
2016-12-30T08:30:21.023Z,973.63
2016-12-30T08:31:21.003Z,973.62
2016-12-30T08:32:20.984Z,973.58
2016-12-30T08:33:20.967Z,973.66
2016-12-30T08:34:20.947Z,973.65
2016-12-30T08:35:20.928Z,973.67
2016-12-30T08:36:20.909Z,973.66
2016-12-30T08:37:20.892Z,973.66
2016-12-30T08:38:20.872Z,973.67
2016-12-30T08:39:20.851Z,973.67
2016-12-30T08:40:20.834Z,973.68
2016-12-30T08:41:20.815Z,973.7
2016-12-30T08:42:20.796Z,973.66
2016-12-30T08:43:20.777Z,973.66
2016-12-30T08:44:20.760Z,973.67
2016-12-30T08:45:20.740Z,973.7
2016-12-30T08:46:20.721Z,973.68
2016-12-30T08:47:20.703Z,973.64
2016-12-30T08:48:20.684Z,973.67
2016-12-30T08:49:20.666Z,973.61
2016-12-30T08:50:20.646Z,973.62
2016-12-30T08:51:20.628Z,973.62
2016-12-30T08:52:20.609Z,973.59
2016-12-30T08:53:20.590Z,973.59
2016-12-30T08:54:20.571Z,973.58
2016-12-30T08:55:20.554Z,973.59
2016-12-30T08:56:20.534Z,973.55
2016-12-30T08:57:20.515Z,973.57
2016-12-30T08:58:20.497Z,973.54
2016-12-30T08:59:20.479Z,973.55
2016-12-30T09:00:20.460Z,973.54
2016-12-30T09:01:20.440Z,973.58
2016-12-30T09:02:20.422Z,973.58
2016-12-30T09:03:20.404Z,973.55
2016-12-30T09:04:20.384Z,973.55
2016-12-30T09:05:20.367Z,973.56
2016-12-30T09:06:20.348Z,973.54
2016-12-30T09:07:20.330Z,973.57
2016-12-30T09:08:20.312Z,973.56
2016-12-30T09:09:20.483Z,973.56
2016-12-30T09:10:20.274Z,973.58
2016-12-30T09:11:20.256Z,973.62
2016-12-30T09:12:20.238Z,973.58
2016-12-30T09:13:20.220Z,973.59
2016-12-30T09:14:20.201Z,973.61
2016-12-30T09:15:20.183Z,973.57
2016-12-30T09:16:20.319Z,973.6
2016-12-30T09:17:20.146Z,973.59
2016-12-30T09:18:20.130Z,973.56
2016-12-30T09:19:20.109Z,973.53
2016-12-30T09:20:20.091Z,973.6
2016-12-30T09:21:20.075Z,973.62
2016-12-30T09:22:20.055Z,973.57
2016-12-30T09:23:20.036Z,973.6
2016-12-30T09:24:20.018Z,973.65
2016-12-30T09:25:20.000Z,973.64
2016-12-30T09:26:20.035Z,973.69
2016-12-30T09:27:19.963Z,973.68
2016-12-30T09:28:19.946Z,973.7
2016-12-30T09:29:19.928Z,973.73
2016-12-30T09:30:19.908Z,973.69
2016-12-30T09:31:19.892Z,973.69
2016-12-30T09:32:19.873Z,973.68
2016-12-30T09:33:19.855Z,973.69
2016-12-30T09:34:19.838Z,973.71
2016-12-30T09:35:19.821Z,973.72
2016-12-30T09:36:19.802Z,973.69
2016-12-30T09:37:19.785Z,973.71
2016-12-30T09:38:19.766Z,973.75
2016-12-30T09:39:19.748Z,973.7
2016-12-30T09:40:19.731Z,973.73
2016-12-30T09:41:19.712Z,973.72
2016-12-30T09:42:19.696Z,973.69
2016-12-30T09:43:19.676Z,973.68
2016-12-30T09:44:19.658Z,973.71
2016-12-30T09:45:19.641Z,973.7
2016-12-30T09:46:19.623Z,973.67
2016-12-30T09:47:19.605Z,973.67
2016-12-30T09:48:19.586Z,973.68
2016-12-30T09:49:19.570Z,973.67
2016-12-30T09:50:19.551Z,973.69
2016-12-30T09:51:19.533Z,973.63
2016-12-30T09:52:19.518Z,973.64
2016-12-30T09:53:19.499Z,973.63
2016-12-30T09:54:19.481Z,973.67
2016-12-30T09:55:19.462Z,973.64
2016-12-30T09:56:19.445Z,973.6
2016-12-30T09:57:19.428Z,973.58
2016-12-30T09:58:19.410Z,973.57
2016-12-30T09:59:19.391Z,973.54
2016-12-30T10:00:19.374Z,973.55
2016-12-30T10:01:19.356Z,973.49
2016-12-30T10:02:19.339Z,973.45
2016-12-30T10:03:19.321Z,973.5
2016-12-30T10:04:19.303Z,973.51
2016-12-30T10:05:19.355Z,973.42
2016-12-30T10:06:19.268Z,973.47
2016-12-30T10:07:19.252Z,973.45
2016-12-30T10:08:19.234Z,973.46
2016-12-30T10:09:19.216Z,973.46
2016-12-30T10:10:19.200Z,973.42
2016-12-30T10:11:19.181Z,973.42
2016-12-30T10:12:19.163Z,973.41
2016-12-30T10:13:19.146Z,973.41
2016-12-30T10:14:19.129Z,973.39
2016-12-30T10:15:19.111Z,973.39
2016-12-30T10:16:19.093Z,973.34
2016-12-30T10:17:19.075Z,973.35
2016-12-30T10:18:19.059Z,973.32
2016-12-30T10:19:19.041Z,973.3
2016-12-30T10:20:19.024Z,973.27
2016-12-30T10:21:19.006Z,973.29
2016-12-30T10:22:18.989Z,973.24
2016-12-30T10:23:18.973Z,973.22
2016-12-30T10:24:18.955Z,973.21
2016-12-30T10:25:18.937Z,973.23
2016-12-30T10:26:18.920Z,973.16
2016-12-30T10:27:18.903Z,973.11
2016-12-30T10:28:18.885Z,973.14
2016-12-30T10:29:18.868Z,973.01
2016-12-30T10:30:18.851Z,973.08
2016-12-30T10:31:18.833Z,973.11
2016-12-30T10:32:18.815Z,973.02
2016-12-30T10:33:18.799Z,973.04
2016-12-30T10:34:18.781Z,973.05
2016-12-30T10:35:18.765Z,973
2016-12-30T10:36:18.746Z,973.07
2016-12-30T10:37:18.730Z,972.97
2016-12-30T10:38:18.714Z,973.02
2016-12-30T10:39:18.695Z,973.01
2016-12-30T10:40:18.678Z,972.98
2016-12-30T10:41:18.662Z,972.98
2016-12-30T10:42:18.645Z,972.96
2016-12-30T10:43:18.629Z,972.97
2016-12-30T10:44:18.610Z,972.97
2016-12-30T10:45:18.595Z,972.97
2016-12-30T10:46:18.576Z,972.95
2016-12-30T10:47:18.569Z,972.98
2016-12-30T10:48:18.545Z,972.98
2016-12-30T10:49:18.525Z,972.95
2016-12-30T10:50:18.509Z,972.98
2016-12-30T10:51:18.491Z,972.91
2016-12-30T10:52:18.474Z,972.91
2016-12-30T10:53:18.458Z,972.92
2016-12-30T10:54:18.441Z,972.92
2016-12-30T10:55:18.424Z,972.91
2016-12-30T10:56:18.407Z,972.92
2016-12-30T10:57:18.391Z,972.92
2016-12-30T10:58:18.373Z,972.88
2016-12-30T10:59:18.357Z,972.89
2016-12-30T11:00:18.342Z,972.9
2016-12-30T11:01:18.322Z,972.9
2016-12-30T11:02:18.306Z,972.91
2016-12-30T11:03:18.290Z,972.9
2016-12-30T11:04:18.273Z,972.92
2016-12-30T11:05:18.257Z,972.96
2016-12-30T11:06:18.240Z,972.95
2016-12-30T11:07:18.222Z,972.88
2016-12-30T11:08:18.207Z,972.84
2016-12-30T11:09:18.190Z,972.84
2016-12-30T11:10:18.175Z,972.78
2016-12-30T11:11:18.157Z,972.82
2016-12-30T11:12:18.141Z,972.82
2016-12-30T11:13:18.123Z,972.85
2016-12-30T11:14:18.108Z,972.81
2016-12-30T11:15:18.091Z,972.84
2016-12-30T11:16:18.073Z,972.83
2016-12-30T11:17:18.057Z,972.84
2016-12-30T11:18:18.040Z,972.85
2016-12-30T11:19:18.023Z,972.78
2016-12-30T11:20:18.007Z,972.78
2016-12-30T11:21:17.990Z,972.8
2016-12-30T11:22:17.974Z,972.74
2016-12-30T11:23:17.957Z,972.65
2016-12-30T11:24:17.940Z,972.71
2016-12-30T11:25:17.924Z,972.62
2016-12-30T11:26:17.908Z,972.63
2016-12-30T11:27:17.891Z,972.71
2016-12-30T11:28:17.875Z,972.66
2016-12-30T11:29:17.859Z,972.64
2016-12-30T11:30:17.841Z,972.62
2016-12-30T11:31:17.825Z,972.6
2016-12-30T11:32:17.809Z,972.58
2016-12-30T11:33:17.793Z,972.58
2016-12-30T11:34:17.776Z,972.61
2016-12-30T11:35:17.760Z,972.58
2016-12-30T11:36:17.744Z,972.5
2016-12-30T11:37:17.728Z,972.55
2016-12-30T11:38:17.711Z,972.55
2016-12-30T11:39:17.695Z,972.47
2016-12-30T11:40:17.678Z,972.49
2016-12-30T11:41:17.662Z,972.47
2016-12-30T11:42:17.645Z,972.49
2016-12-30T11:43:17.629Z,972.48
2016-12-30T11:44:17.614Z,972.47
2016-12-30T11:45:17.596Z,972.46
2016-12-30T11:46:17.579Z,972.48
2016-12-30T11:47:17.567Z,972.46
2016-12-30T11:48:17.548Z,972.45
2016-12-30T11:49:17.531Z,972.43
2016-12-30T11:50:17.516Z,972.41
2016-12-30T11:51:17.499Z,972.41
2016-12-30T11:52:17.481Z,972.37
2016-12-30T11:53:17.466Z,972.39
2016-12-30T11:54:17.450Z,972.36
2016-12-30T11:55:17.433Z,972.35
2016-12-30T11:56:17.417Z,972.33
2016-12-30T11:57:17.400Z,972.31
2016-12-30T11:58:17.386Z,972.31
2016-12-30T11:59:17.370Z,972.26
2016-12-30T12:00:17.353Z,972.23
2016-12-30T12:01:17.336Z,972.23
2016-12-30T12:02:17.320Z,972.21
2016-12-30T12:03:17.304Z,972.22
2016-12-30T12:04:17.289Z,972.2
2016-12-30T12:05:17.272Z,972.19
2016-12-30T12:06:17.256Z,972.2
2016-12-30T12:07:17.239Z,972.17
2016-12-30T12:08:17.223Z,972.2
2016-12-30T12:09:17.209Z,972.22
2016-12-30T12:10:17.192Z,972.21
2016-12-30T12:11:17.177Z,972.13
2016-12-30T12:12:17.160Z,972.19
2016-12-30T12:13:17.145Z,972.16
2016-12-30T12:14:17.127Z,972.2
2016-12-30T12:15:17.112Z,972.21
2016-12-30T12:16:17.095Z,972.2
2016-12-30T12:17:17.081Z,972.17
2016-12-30T12:18:17.064Z,972.19
2016-12-30T12:19:17.048Z,972.22
2016-12-30T12:20:17.034Z,972.11
2016-12-30T12:21:17.020Z,972.11
2016-12-30T12:22:17.001Z,972.08
2016-12-30T12:23:16.985Z,972.08
2016-12-30T12:24:16.969Z,972.12
2016-12-30T12:25:16.953Z,972.09
2016-12-30T12:26:16.936Z,972.1
2016-12-30T12:27:16.921Z,972.12
2016-12-30T12:28:16.907Z,972.09
2016-12-30T12:29:16.889Z,972.12
2016-12-30T12:30:16.874Z,972.04
2016-12-30T12:31:16.859Z,972.03